Time;durP1;ratioP1;P1;durP2;ratioP2;P2;SDS_P1;SDS_P2;PMS_P1;PMS_P2;Temp;Humidity;BMP_temperature;BMP_pressure;BME280_temperature;BME280_humidity;BME280_pressure;Samples;Min_cycle;Max_cycle;Signal;HPM_P1;HPM_P2
2022/07/01 00:00:06;;;;;;;9.60;3.52;;;22.20;66.20;;;;;;1847663;78;21042;-63
2022/07/01 00:02:37;;;;;;;7.60;3.65;;;22.20;66.00;;;;;;1846730;78;21153;-63
2022/07/01 00:05:07;;;;;;;8.25;3.58;;;22.20;66.30;;;;;;1847603;77;21105;-63
2022/07/01 00:07:49;;;;;;;7.28;3.83;;;22.30;66.60;;;;;;1847749;78;21058;-63
2022/07/01 00:10:19;;;;;;;8.68;4.05;;;22.30;66.60;;;;;;1847642;77;21508;-63
2022/07/01 00:12:49;;;;;;;6.55;3.15;;;22.30;66.60;;;;;;1847629;77;21049;-63
2022/07/01 00:15:18;;;;;;;9.33;2.98;;;22.30;66.50;;;;;;1847616;78;21050;-63
2022/07/01 00:17:48;;;;;;;9.50;3.45;;;22.20;66.40;;;;;;1847513;78;21041;-63
2022/07/01 00:20:18;;;;;;;8.10;3.98;;;22.10;66.50;;;;;;1847670;78;21128;-63
2022/07/01 00:22:47;;;;;;;8.20;3.33;;;22.00;66.60;;;;;;1847494;78;21104;-63
2022/07/01 00:25:17;;;;;;;8.50;3.58;;;21.90;67.20;;;;;;1847705;78;21216;-63
2022/07/01 00:27:46;;;;;;;8.45;3.95;;;21.90;67.90;;;;;;1847545;78;21108;-63
2022/07/01 00:30:16;;;;;;;8.23;3.30;;;21.90;68.20;;;;;;1847627;78;21064;-63
2022/07/01 00:32:46;;;;;;;4.40;2.90;;;21.90;68.50;;;;;;1847539;78;21100;-63
2022/07/01 00:35:15;;;;;;;6.85;2.72;;;21.90;69.10;;;;;;1847562;78;21115;-63
2022/07/01 00:37:45;;;;;;;8.48;3.42;;;21.90;68.60;;;;;;1847503;78;21042;-63
2022/07/01 00:40:14;;;;;;;8.05;3.60;;;21.80;68.60;;;;;;1847625;78;21025;-63
2022/07/01 00:42:44;;;;;;;8.35;4.40;;;21.80;68.40;;;;;;1847610;78;21065;-63
2022/07/01 00:45:14;;;;;;;6.28;3.65;;;21.80;68.20;;;;;;1847643;78;21086;-63
2022/07/01 00:47:43;;;;;;;9.60;4.40;;;21.70;67.90;;;;;;1847637;78;21492;-63
2022/07/01 00:50:15;;;;;;;5.70;3.55;;;21.60;68.10;;;;;;1847592;78;21038;-63
2022/07/01 00:52:46;;;;;;;6.65;3.75;;;21.50;68.60;;;;;;1847665;78;21033;-63
2022/07/01 00:55:16;;;;;;;12.10;3.40;;;21.50;68.50;;;;;;1847693;78;21046;-63
2022/07/01 00:57:45;;;;;;;8.90;3.25;;;21.50;68.40;;;;;;1847656;78;21099;-63
2022/07/01 01:00:26;;;;;;;9.85;4.10;;;21.40;68.90;;;;;;1847710;78;21045;-62
2022/07/01 01:02:48;;;;;;;11.30;3.77;;;21.50;69.20;;;;;;1844620;78;21045;-61
2022/07/01 01:05:21;;;;;;;7.35;4.20;;;21.50;69.40;;;;;;1847708;77;21120;-62
2022/07/01 01:07:51;;;;;;;8.20;3.58;;;21.50;69.30;;;;;;1847726;78;21041;-62
2022/07/01 01:10:22;;;;;;;7.60;3.55;;;21.50;69.50;;;;;;1847617;78;21047;-62
2022/07/01 01:12:52;;;;;;;15.88;4.60;;;21.60;69.80;;;;;;1847723;78;21073;-62
2022/07/01 01:15:22;;;;;;;9.50;4.08;;;21.60;70.00;;;;;;1847732;78;21089;-62
2022/07/01 01:17:51;;;;;;;10.78;3.90;;;21.70;70.00;;;;;;1847631;78;21041;-62
2022/07/01 01:20:21;;;;;;;11.03;4.17;;;21.70;70.00;;;;;;1847639;78;21040;-61
2022/07/01 01:22:51;;;;;;;7.58;3.70;;;21.70;70.00;;;;;;1847577;78;21042;-62
2022/07/01 01:25:20;;;;;;;11.70;4.20;;;21.80;69.80;;;;;;1847676;78;21042;-62
2022/07/01 01:27:49;;;;;;;5.95;3.62;;;21.80;69.60;;;;;;1847678;77;21025;-61
2022/07/01 01:30:19;;;;;;;13.90;3.52;;;21.80;69.60;;;;;;1847682;78;21089;-61
2022/07/01 01:32:49;;;;;;;21.57;4.37;;;21.80;70.10;;;;;;1847612;78;21045;-62
2022/07/01 01:35:19;;;;;;;23.70;4.95;;;21.80;69.40;;;;;;1847711;78;21105;-62
2022/07/01 01:37:49;;;;;;;8.23;3.67;;;21.90;69.30;;;;;;1847619;78;21017;-62
2022/07/01 01:40:18;;;;;;;10.45;3.95;;;21.90;69.30;;;;;;1847665;78;21045;-62
2022/07/01 01:42:48;;;;;;;18.95;5.45;;;21.90;69.30;;;;;;1847606;78;21042;-62
2022/07/01 01:45:17;;;;;;;12.85;4.20;;;22.00;69.40;;;;;;1847724;78;21113;-62
2022/07/01 01:47:47;;;;;;;10.30;4.20;;;22.00;68.30;;;;;;1847606;78;21042;-62
2022/07/01 01:50:16;;;;;;;7.30;4.05;;;21.90;67.80;;;;;;1847683;78;21112;-62
2022/07/01 01:52:45;;;;;;;13.38;3.60;;;21.90;67.70;;;;;;1847683;78;21105;-62
2022/07/01 01:55:15;;;;;;;11.73;3.45;;;21.90;67.40;;;;;;1847613;78;21034;-62
2022/07/01 01:57:44;;;;;;;7.35;3.85;;;21.90;67.90;;;;;;1847697;77;21167;-63
2022/07/01 02:00:14;;;;;;;15.65;5.05;;;21.80;68.10;;;;;;1847642;78;21042;-63
2022/07/01 02:02:43;;;;;;;7.28;3.35;;;21.80;68.00;;;;;;1847551;78;21034;-63
2022/07/01 02:05:14;;;;;;;6.20;3.02;;;21.80;68.30;;;;;;1849209;77;21074;-63
2022/07/01 02:07:43;;;;;;;7.67;3.37;;;21.80;68.80;;;;;;1850641;77;21108;-63
2022/07/01 02:10:13;;;;;;;10.15;3.25;;;21.80;68.90;;;;;;1850677;77;21061;-62
2022/07/01 02:12:42;;;;;;;6.00;3.45;;;21.80;68.80;;;;;;1850555;77;21041;-62
2022/07/01 02:15:12;;;;;;;13.43;4.87;;;21.80;68.80;;;;;;1850573;77;21042;-63
2022/07/01 02:17:41;;;;;;;15.95;4.58;;;21.80;68.10;;;;;;1850520;77;21500;-63
2022/07/01 02:20:14;;;;;;;11.12;4.60;;;21.80;68.60;;;;;;1850679;77;21046;-63
2022/07/01 02:22:43;;;;;;;15.43;5.45;;;21.80;69.20;;;;;;1850524;77;21061;-62
2022/07/01 02:25:12;;;;;;;9.58;3.65;;;21.80;69.30;;;;;;1850660;77;21194;-62
2022/07/01 02:27:42;;;;;;;14.45;4.47;;;21.80;69.10;;;;;;1850679;77;21045;-62
2022/07/01 02:30:12;;;;;;;11.78;3.40;;;21.90;69.20;;;;;;1850561;77;21112;-62
2022/07/01 02:32:42;;;;;;;15.98;4.47;;;21.90;69.30;;;;;;1850597;77;21049;-63
2022/07/01 02:35:13;;;;;;;9.80;4.42;;;21.80;68.70;;;;;;1850569;77;21111;-63
2022/07/01 02:37:43;;;;;;;8.90;3.92;;;21.80;68.50;;;;;;1850667;77;21038;-62
2022/07/01 02:40:13;;;;;;;9.10;3.35;;;21.80;68.80;;;;;;1850698;77;21129;-63
2022/07/01 02:42:42;;;;;;;7.20;3.00;;;21.80;69.30;;;;;;1850530;77;21046;-63
2022/07/01 02:45:11;;;;;;;9.60;3.98;;;21.80;69.60;;;;;;1850803;77;21088;-63
2022/07/01 02:47:43;;;;;;;8.93;3.95;;;21.90;69.30;;;;;;1850661;77;21050;-62
2022/07/01 02:50:14;;;;;;;11.00;3.85;;;21.90;69.10;;;;;;1850787;77;21082;-63
2022/07/01 02:52:44;;;;;;;8.45;3.33;;;21.90;69.20;;;;;;1850713;77;21116;-63
2022/07/01 02:55:15;;;;;;;9.45;3.70;;;21.80;69.40;;;;;;1850729;77;21045;-63
2022/07/01 02:57:44;;;;;;;13.03;4.42;;;21.80;69.70;;;;;;1850559;77;21093;-63
2022/07/01 03:00:15;;;;;;;9.65;4.03;;;21.80;69.80;;;;;;1850689;77;21041;-63
2022/07/01 03:02:44;;;;;;;12.90;3.85;;;21.80;69.60;;;;;;1850600;77;21101;-63
2022/07/01 03:05:14;;;;;;;8.98;4.47;;;21.80;69.70;;;;;;1851440;77;21081;-63
2022/07/01 03:07:44;;;;;;;9.45;4.83;;;21.80;69.80;;;;;;1853827;77;21065;-63
2022/07/01 03:10:13;;;;;;;15.35;6.28;;;21.90;69.80;;;;;;1853823;77;21041;-63
2022/07/01 03:12:43;;;;;;;17.95;7.22;;;21.90;69.10;;;;;;1853725;77;21165;-63
2022/07/01 03:15:14;;;;;;;17.67;7.70;;;22.00;68.60;;;;;;1853908;77;21100;-63
2022/07/01 03:17:46;;;;;;;16.10;7.45;;;22.10;68.60;;;;;;1853815;77;21045;-63
2022/07/01 03:20:17;;;;;;;14.83;6.05;;;22.10;68.20;;;;;;1853792;77;21038;-64
2022/07/01 03:22:47;;;;;;;15.35;4.47;;;22.20;67.90;;;;;;1853900;77;21590;-64
2022/07/01 03:25:17;;;;;;;11.38;5.85;;;22.20;67.60;;;;;;1853861;77;21111;-64
2022/07/01 03:27:47;;;;;;;13.00;6.28;;;22.20;67.30;;;;;;1853815;77;21111;-65
2022/07/01 03:30:18;;;;;;;12.35;5.28;;;22.20;67.50;;;;;;1853783;77;21045;-64
2022/07/01 03:32:47;;;;;;;12.95;4.60;;;22.30;68.10;;;;;;1853801;77;21111;-65
2022/07/01 03:35:35;;;;;;;9.98;4.17;;;22.40;68.30;;;;;;1853760;77;21045;-65
2022/07/01 03:38:05;;;;;;;8.18;4.00;;;22.50;68.90;;;;;;1853777;77;21053;-65
2022/07/01 03:40:35;;;;;;;10.15;4.92;;;22.70;68.00;;;;;;1853798;77;21049;-64
2022/07/01 03:43:05;;;;;;;14.93;5.55;;;22.80;67.90;;;;;;1853886;77;21017;-64
2022/07/01 03:45:34;;;;;;;13.90;5.78;;;22.90;67.90;;;;;;1853856;77;21116;-64
2022/07/01 03:48:04;;;;;;;11.75;4.97;;;23.00;67.90;;;;;;1853950;77;21022;-63
2022/07/01 03:50:33;;;;;;;12.93;6.83;;;23.10;67.30;;;;;;1853875;77;21045;-64
2022/07/01 03:55:50;;;;;;;21.48;8.45;;;23.20;67.10;;;;;;1853865;77;21517;-64
2022/07/01 03:58:19;;;;;;;26.25;11.90;;;23.40;66.80;;;;;;1853830;77;21073;-64
2022/07/01 04:00:49;;;;;;;20.70;8.95;;;23.50;66.60;;;;;;1853861;77;21108;-64
2022/07/01 04:03:18;;;;;;;20.52;8.98;;;23.70;66.30;;;;;;1853791;77;21115;-64
2022/07/01 04:05:48;;;;;;;16.32;7.92;;;23.80;65.90;;;;;;1852819;77;21089;-64
2022/07/01 04:08:18;;;;;;;19.27;7.05;;;23.90;65.40;;;;;;1850486;77;21076;-64
2022/07/01 04:10:47;;;;;;;18.12;6.60;;;24.00;65.10;;;;;;1850451;77;21065;-65
2022/07/01 04:13:17;;;;;;;13.50;6.10;;;24.10;64.50;;;;;;1850550;77;21017;-64
2022/07/01 04:15:47;;;;;;;13.22;6.78;;;24.20;63.60;;;;;;1850470;77;21037;-64
2022/07/01 04:18:16;;;;;;;17.65;6.12;;;24.30;63.10;;;;;;1850616;77;21046;-65
2022/07/01 04:22:32;;;;;;;7.67;3.08;;;24.30;63.10;;;;;;1850450;77;21010;-64
2022/07/01 04:23:16;;;;;;;5.70;2.65;;;24.40;61.60;;;;;;1846079;77;21100;-64
2022/07/01 04:25:46;;;;;;;4.95;3.05;;;24.40;61.40;;;;;;1850597;77;21045;-64
2022/07/01 04:28:15;;;;;;;10.28;3.52;;;24.30;61.20;;;;;;1850561;77;21131;-64
2022/07/01 04:30:45;;;;;;;4.03;3.20;;;24.30;61.40;;;;;;1850452;77;21050;-64
2022/07/01 04:33:15;;;;;;;5.33;4.20;;;24.30;62.40;;;;;;1850460;77;21045;-64
2022/07/01 04:35:44;;;;;;;4.47;2.80;;;24.40;61.40;;;;;;1850609;77;21115;-65
2022/07/01 04:38:14;;;;;;;5.40;3.52;;;24.50;61.10;;;;;;1850612;77;21062;-65
2022/07/01 04:41:58;;;;;;;3.87;3.37;;;24.60;60.80;;;;;;1850597;77;21081;-65
2022/07/01 04:43:14;;;;;;;12.75;3.10;;;24.80;60.40;;;;;;1846658;77;21107;-65
2022/07/01 04:45:44;;;;;;;8.13;3.30;;;24.90;59.90;;;;;;1850392;77;21179;-65
2022/07/01 04:48:14;;;;;;;10.72;3.27;;;25.00;58.90;;;;;;1850467;77;21046;-65
2022/07/01 04:50:44;;;;;;;5.05;3.47;;;25.00;58.70;;;;;;1850579;77;21045;-65
2022/07/01 04:53:14;;;;;;;12.95;3.27;;;25.00;58.70;;;;;;1850580;77;21058;-65
2022/07/01 04:55:44;;;;;;;6.95;3.30;;;25.00;57.90;;;;;;1850515;77;21042;-65
2022/07/01 04:58:14;;;;;;;6.70;3.12;;;25.00;57.60;;;;;;1850546;77;21018;-65
2022/07/01 05:00:44;;;;;;;7.37;2.83;;;25.00;57.60;;;;;;1850397;77;21081;-66
2022/07/01 05:03:13;;;;;;;5.45;2.98;;;25.00;58.00;;;;;;1850491;77;21045;-65
2022/07/01 05:05:43;;;;;;;5.62;3.25;;;25.00;58.10;;;;;;1850443;77;21049;-65
2022/07/01 05:08:13;;;;;;;7.85;3.45;;;25.20;58.30;;;;;;1850485;77;21049;-65
2022/07/01 05:10:42;;;;;;;9.45;3.42;;;25.30;57.20;;;;;;1850355;77;21042;-65
2022/07/01 05:13:11;;;;;;;7.67;2.72;;;25.40;56.70;;;;;;1850616;77;21022;-65
2022/07/01 05:15:41;;;;;;;8.53;3.10;;;25.40;56.10;;;;;;1850489;77;21115;-65
2022/07/01 05:23:45;;;;;;;5.08;2.83;;;25.60;55.80;;;;;;1850637;77;21163;-64
2022/07/01 05:26:20;;;;;;;8.08;2.60;;;25.60;55.40;;;;;;1850469;77;21042;-64
2022/07/01 05:28:46;;;;;;;7.60;3.52;;;25.70;54.80;;;;;;1849535;77;21156;-64
2022/07/01 05:31:16;;;;;;;9.18;2.50;;;25.70;54.80;;;;;;1850407;77;21492;-64
2022/07/01 05:33:45;;;;;;;5.72;2.52;;;25.80;54.80;;;;;;1850433;77;21111;-64
2022/07/01 05:36:15;;;;;;;7.90;2.37;;;25.90;54.20;;;;;;1850649;77;21135;-64
2022/07/01 05:38:45;;;;;;;5.28;2.83;;;26.00;54.20;;;;;;1850566;77;21045;-64
2022/07/01 05:41:15;;;;;;;17.70;3.52;;;26.10;54.20;;;;;;1850671;77;21042;-64
2022/07/01 05:43:44;;;;;;;3.50;2.52;;;26.20;53.80;;;;;;1850644;77;21107;-64
2022/07/01 05:46:14;;;;;;;6.30;2.40;;;26.30;52.90;;;;;;1850543;77;21061;-64
2022/07/01 05:48:43;;;;;;;5.78;2.87;;;26.40;52.80;;;;;;1850609;77;21107;-65
2022/07/01 05:51:13;;;;;;;6.15;2.77;;;26.30;51.80;;;;;;1850332;77;21103;-65
2022/07/01 05:53:43;;;;;;;7.08;2.40;;;26.40;51.90;;;;;;1850624;77;21053;-65
2022/07/01 05:59:02;;;;;;;6.25;4.22;;;26.40;50.80;;;;;;1818005;79;21048;-65
2022/07/01 06:01:31;;;;;;;3.45;2.33;;;26.40;51.40;;;;;;1815445;79;21068;-65
2022/07/01 06:04:02;;;;;;;6.67;2.30;;;26.40;50.60;;;;;;1787002;80;21030;-65
2022/07/01 06:06:31;;;;;;;5.92;2.62;;;26.40;50.80;;;;;;1817921;79;21051;-65
2022/07/01 06:09:00;;;;;;;21.40;3.37;;;26.50;50.70;;;;;;1818056;79;21003;-65
2022/07/01 06:11:31;;;;;;;6.83;2.47;;;26.60;50.50;;;;;;1817796;79;21092;-65
2022/07/01 06:14:00;;;;;;;10.70;2.22;;;26.80;50.40;;;;;;1817898;79;21023;-65
2022/07/01 06:16:29;;;;;;;8.65;2.55;;;26.90;50.20;;;;;;1817844;79;21147;-65
2022/07/01 06:18:59;;;;;;;5.67;2.05;;;27.00;49.70;;;;;;1818041;79;21437;-65
2022/07/01 06:21:28;;;;;;;6.62;2.62;;;27.10;49.50;;;;;;1817990;79;21093;-65
2022/07/01 06:23:58;;;;;;;7.22;3.30;;;27.20;49.50;;;;;;1817904;79;21110;-65
2022/07/01 06:26:27;;;;;;;6.72;4.00;;;27.30;49.70;;;;;;1817941;79;21003;-65
2022/07/01 06:28:57;;;;;;;7.37;2.45;;;27.40;49.40;;;;;;1818019;79;21022;-65
2022/07/01 06:31:26;;;;;;;4.08;2.40;;;27.50;49.10;;;;;;1817966;79;21042;-65
2022/07/01 06:33:56;;;;;;;6.47;2.20;;;27.60;48.90;;;;;;1818124;79;21106;-65
2022/07/01 06:36:25;;;;;;;5.08;2.05;;;27.70;48.20;;;;;;1818054;79;21046;-65
2022/07/01 06:38:55;;;;;;;3.77;3.08;;;27.70;47.70;;;;;;1818114;79;21039;-66
2022/07/01 06:41:27;;;;;;;6.10;2.40;;;27.70;47.10;;;;;;1818024;79;21007;-66
2022/07/01 06:43:58;;;;;;;7.10;2.27;;;27.70;46.80;;;;;;1818011;79;21124;-66
2022/07/01 06:46:29;;;;;;;6.10;2.20;;;27.70;47.10;;;;;;1787792;79;21061;-63
2022/07/01 06:48:58;;;;;;;14.23;3.30;;;27.70;46.90;;;;;;1787074;80;21037;-63
2022/07/01 06:51:28;;;;;;;5.90;2.37;;;27.70;46.10;;;;;;1818012;79;21083;-63
2022/07/01 06:53:57;;;;;;;8.03;2.70;;;27.70;46.00;;;;;;1772249;80;21125;-63
2022/07/01 06:56:27;;;;;;;4.10;2.75;;;27.70;45.80;;;;;;1787048;80;21062;-63
2022/07/01 06:58:57;;;;;;;8.25;2.25;;;27.70;46.20;;;;;;1809603;78;21102;-64
2022/07/01 07:01:26;;;;;;;3.65;2.05;;;27.80;46.30;;;;;;1806963;79;21489;-64
2022/07/01 07:03:56;;;;;;;5.15;2.60;;;27.90;46.00;;;;;;1806923;79;21164;-64
2022/07/01 07:06:25;;;;;;;5.75;2.72;;;27.90;45.50;;;;;;1806738;79;21015;-64
2022/07/01 07:08:55;;;;;;;9.80;2.50;;;28.00;45.50;;;;;;1806829;79;21485;-64
2022/07/01 07:11:25;;;;;;;8.45;2.33;;;28.00;45.70;;;;;;1806827;79;21019;-64
2022/07/01 07:13:54;;;;;;;3.40;1.90;;;28.10;45.60;;;;;;1806698;79;20999;-64
2022/07/01 07:16:24;;;;;;;4.15;2.15;;;28.20;45.40;;;;;;1806865;79;21092;-64
2022/07/01 07:18:53;;;;;;;8.90;2.55;;;28.30;45.00;;;;;;1806833;79;20995;-64
2022/07/01 07:21:22;;;;;;;4.33;2.08;;;28.40;45.10;;;;;;1806888;79;21039;-64
2022/07/01 07:23:52;;;;;;;4.47;3.15;;;28.60;44.50;;;;;;1806944;79;20999;-64
2022/07/01 07:26:21;;;;;;;6.67;4.12;;;28.70;44.40;;;;;;1806912;79;21019;-64
2022/07/01 07:28:52;;;;;;;6.03;2.70;;;28.70;43.90;;;;;;1806910;79;21003;-64
2022/07/01 07:31:21;;;;;;;4.65;2.08;;;28.70;44.20;;;;;;1806795;79;21003;-65
2022/07/01 07:33:50;;;;;;;2.83;1.85;;;28.70;44.20;;;;;;1806777;79;21085;-64
2022/07/01 07:36:20;;;;;;;2.80;1.92;;;28.70;43.50;;;;;;1806818;79;21035;-64
2022/07/01 07:38:49;;;;;;;8.73;2.00;;;28.80;42.90;;;;;;1806600;79;21035;-65
2022/07/01 07:41:19;;;;;;;7.67;2.45;;;28.80;43.60;;;;;;1806584;79;21047;-63
2022/07/01 07:43:48;;;;;;;3.30;2.10;;;28.80;42.90;;;;;;1805321;79;21557;-63
2022/07/01 07:46:30;;;;;;;7.15;1.67;;;28.80;42.60;;;;;;1805998;79;21088;-63
2022/07/01 07:49:14;;;;;;;11.25;2.40;;;28.90;40.90;;;;;;1805756;77;21125;-62
2022/07/01 07:51:58;;;;;;;8.18;2.65;;;29.00;41.10;;;;;;1805771;79;21360;-62
2022/07/01 07:54:42;;;;;;;3.50;1.87;;;29.00;41.30;;;;;;1806156;78;21054;-60
2022/07/01 07:57:13;;;;;;;8.13;2.00;;;29.10;41.00;;;;;;1806250;79;21163;-60
2022/07/01 07:59:59;;;;;;;7.60;2.70;;;29.10;41.40;;;;;;1805413;79;21172;-60
2022/07/01 08:02:45;;;;;;;7.10;2.67;;;29.10;41.60;;;;;;1805735;79;21164;-60
2022/07/01 08:05:29;;;;;;;7.42;2.62;;;29.30;41.20;;;;;;1760475;81;22043;-60
2022/07/01 08:08:13;;;;;;;7.37;2.45;;;29.40;41.60;;;;;;1776401;80;21074;-60
2022/07/01 08:10:43;;;;;;;;;;;29.50;40.60;;;;;;1778826;81;21073;-61
2022/07/01 08:13:13;;;;;;;5.20;1.80;;;29.60;39.10;;;;;;1775274;81;20148;-61
2022/07/01 08:15:43;;;;;;;8.10;2.75;;;29.60;41.20;;;;;;1807320;79;21037;-60
2022/07/01 08:18:12;;;;;;;6.87;3.10;;;29.70;40.50;;;;;;1806363;79;21120;-61
2022/07/01 08:20:41;;;;;;;5.25;2.30;;;29.80;40.00;;;;;;1805815;79;21107;-59
2022/07/01 08:23:11;;;;;;;8.50;1.87;;;29.90;40.20;;;;;;1806582;79;21132;-64
2022/07/01 08:25:41;;;;;;;5.12;1.87;;;30.00;40.00;;;;;;1805928;79;21041;-65
2022/07/01 08:28:10;;;;;;;13.85;3.47;;;30.00;40.30;;;;;;1804275;79;21051;-63
2022/07/01 08:30:39;;;;;;;3.98;1.90;;;30.10;40.00;;;;;;1804592;79;21045;-61
2022/07/01 08:33:09;;;;;;;7.05;2.15;;;30.20;39.50;;;;;;1759532;81;21124;-64
2022/07/01 08:35:39;;;;;;;6.03;1.92;;;30.20;39.20;;;;;;1804485;79;21051;-63
2022/07/01 08:38:08;;;;;;;4.17;1.62;;;30.20;38.10;;;;;;1804696;79;21047;-61
2022/07/01 08:40:38;;;;;;;4.08;1.90;;;30.20;38.00;;;;;;1804756;79;21055;-62
2022/07/01 08:43:07;;;;;;;4.95;1.70;;;30.20;37.70;;;;;;1804368;79;21114;-63
2022/07/01 08:45:37;;;;;;;4.33;2.20;;;30.20;36.70;;;;;;1804577;79;21130;-64
2022/07/01 08:48:07;;;;;;;5.15;2.85;;;30.20;37.20;;;;;;1804771;79;21161;-65
2022/07/01 08:50:39;;;;;;;6.12;1.92;;;30.20;36.90;;;;;;1804376;79;21155;-65
2022/07/01 08:53:09;;;;;;;9.08;1.98;;;30.20;36.70;;;;;;1804688;79;21059;-65
2022/07/01 08:58:28;;;;;;;5.05;1.52;;;30.30;36.90;;;;;;1804721;79;21055;-64
2022/07/01 09:01:20;;;;;;;7.90;1.98;;;30.40;36.90;;;;;;1805306;79;21126;-67
2022/07/01 09:03:52;;;;;;;4.00;1.52;;;30.50;36.80;;;;;;1805100;79;21107;-67
2022/07/01 09:06:23;;;;;;;3.25;1.67;;;30.50;36.40;;;;;;1804175;79;21122;-66
2022/07/01 09:08:52;;;;;;;4.95;1.60;;;30.50;36.70;;;;;;1804871;79;21051;-66
2022/07/01 09:11:24;;;;;;;7.03;1.80;;;30.50;37.10;;;;;;1805301;79;21141;-66
2022/07/01 09:14:10;;;;;;;4.15;1.75;;;30.60;37.00;;;;;;1804807;79;21075;-66
2022/07/01 09:16:55;;;;;;;6.17;2.55;;;30.60;36.90;;;;;;1805482;79;21074;-66
2022/07/01 09:19:25;;;;;;;2.85;1.62;;;30.60;37.00;;;;;;1805668;79;21052;-66
2022/07/01 09:21:56;;;;;;;5.17;1.90;;;30.70;36.60;;;;;;1805667;79;21059;-66
2022/07/01 09:24:28;;;;;;;5.78;2.05;;;30.70;36.60;;;;;;1805602;79;21125;-66
2022/07/01 09:27:06;;;;;;;2.15;1.40;;;30.70;36.70;;;;;;1805647;79;21520;-66
2022/07/01 09:29:39;;;;;;;7.87;1.92;;;30.60;36.40;;;;;;1805495;79;21071;-66
2022/07/01 09:32:08;;;;;;;;;;;30.80;36.50;;;;;;1808233;79;21086;-66
2022/07/01 09:34:45;;;;;;;3.75;2.12;;;30.80;36.80;;;;;;1805645;79;20114;-67
2022/07/01 09:37:17;;;;;;;5.10;2.20;;;30.80;36.80;;;;;;1805680;79;21045;-66
2022/07/01 09:39:51;;;;;;;4.25;1.80;;;30.90;36.60;;;;;;1805540;79;21095;-67
2022/07/01 09:42:22;;;;;;;3.65;1.90;;;30.90;36.60;;;;;;1805751;79;21055;-67
2022/07/01 09:44:59;;;;;;;2.92;1.70;;;30.90;36.60;;;;;;1805534;79;21056;-67
2022/07/01 09:47:29;;;;;;;5.10;1.75;;;30.90;36.10;;;;;;1805665;79;21102;-67
2022/07/01 09:49:58;;;;;;;7.45;2.02;;;30.80;35.90;;;;;;1805587;79;21055;-67
2022/07/01 09:52:27;;;;;;;3.42;1.70;;;30.80;35.90;;;;;;1805463;79;21152;-67
2022/07/01 09:54:57;;;;;;;3.45;1.90;;;30.80;36.40;;;;;;1805531;79;21169;-67
2022/07/01 09:57:26;;;;;;;3.45;2.08;;;30.90;36.20;;;;;;1805547;79;21164;-67
2022/07/01 09:59:56;;;;;;;3.98;2.12;;;31.00;36.90;;;;;;1806561;79;21079;-67
2022/07/01 10:02:29;;;;;;;5.83;2.10;;;31.00;35.90;;;;;;1808562;79;21048;-66
2022/07/01 10:05:07;;;;;;;4.03;2.08;;;31.00;35.70;;;;;;1808479;79;21505;-66
2022/07/01 10:08:06;;;;;;;4.67;1.82;;;31.00;35.60;;;;;;1808022;79;21094;-67
2022/07/01 10:10:52;;;;;;;5.72;1.75;;;31.00;35.80;;;;;;1757154;81;21049;-66
2022/07/01 10:13:24;;;;;;;17.00;3.90;;;31.10;35.60;;;;;;1757184;82;21061;-66
2022/07/01 10:15:55;;;;;;;2.45;1.90;;;31.10;35.80;;;;;;1787221;79;21047;-67
2022/07/01 10:18:26;;;;;;;7.90;2.55;;;31.20;35.10;;;;;;1808590;79;21050;-67
2022/07/01 10:20:57;;;;;;;7.40;2.50;;;31.20;35.50;;;;;;1808505;79;21117;-67
2022/07/01 10:23:44;;;;;;;3.50;2.17;;;31.20;35.50;;;;;;1808548;79;21106;-67
2022/07/01 10:26:13;;;;;;;6.60;2.00;;;31.20;35.00;;;;;;1808598;79;21051;-67
2022/07/01 10:28:47;;;;;;;4.40;1.90;;;31.20;35.40;;;;;;1808509;79;21051;-67
2022/07/01 10:31:20;;;;;;;4.97;1.80;;;31.10;34.60;;;;;;1808813;79;21110;-67
2022/07/01 10:33:57;;;;;;;4.67;3.05;;;31.00;35.20;;;;;;1808645;79;21051;-67
2022/07/01 10:36:35;;;;;;;4.25;2.20;;;31.10;35.10;;;;;;1808604;79;21098;-68
2022/07/01 10:39:10;;;;;;;4.35;1.95;;;31.10;34.80;;;;;;1808570;79;21055;-67
2022/07/01 10:41:44;;;;;;;4.58;2.20;;;31.10;35.10;;;;;;1808567;79;21051;-68
2022/07/01 10:47:09;;;;;;;4.80;1.70;;;31.30;35.80;;;;;;1792430;80;21052;-68
2022/07/01 10:49:43;;;;;;;3.12;2.17;;;31.30;35.90;;;;;;1805724;79;21511;-67
2022/07/01 10:52:15;;;;;;;7.37;2.47;;;31.40;36.00;;;;;;1805677;79;21037;-68
2022/07/01 10:54:52;;;;;;;10.85;2.30;;;31.40;35.10;;;;;;1805665;79;21046;-68
2022/07/01 10:57:23;;;;;;;6.28;2.20;;;31.40;35.50;;;;;;1805725;79;21041;-68
2022/07/01 10:59:58;;;;;;;5.50;2.72;;;31.40;35.30;;;;;;1801699;79;21049;-67
2022/07/01 11:02:30;;;;;;;3.12;2.15;;;31.40;35.80;;;;;;1805609;79;21069;-67
2022/07/01 11:05:01;;;;;;;4.10;2.42;;;31.50;35.60;;;;;;1805595;79;21050;-67
2022/07/01 11:07:36;;;;;;;5.17;2.08;;;31.50;35.30;;;;;;1805671;79;21131;-67
2022/07/01 11:10:07;;;;;;;3.55;2.27;;;31.40;35.30;;;;;;1805526;79;21080;-67
2022/07/01 11:12:37;;;;;;;6.95;4.62;;;31.30;35.60;;;;;;1805598;79;21050;-67
2022/07/01 11:15:09;;;;;;;3.17;2.22;;;31.40;35.90;;;;;;1805562;79;21092;-66
2022/07/01 11:17:44;;;;;;;6.50;3.33;;;31.40;36.70;;;;;;1805599;79;21573;-67
2022/07/01 11:20:14;;;;;;;5.72;2.50;;;31.50;37.20;;;;;;1805290;79;21061;-66
2022/07/01 11:22:43;;;;;;;9.88;2.45;;;31.50;36.90;;;;;;1805547;79;21053;-66
2022/07/01 11:25:13;;;;;;;3.52;2.40;;;31.50;36.70;;;;;;1805623;79;21563;-66
2022/07/01 11:27:45;;;;;;;3.77;3.30;;;31.50;37.60;;;;;;1805580;79;21029;-67
2022/07/01 11:30:15;;;;;;;5.30;3.25;;;31.50;37.10;;;;;;1805693;79;21108;-67
2022/07/01 11:32:47;;;;;;;3.08;2.77;;;31.40;37.40;;;;;;1805718;79;21127;-67
2022/07/01 11:41:07;;;;;;;5.08;2.37;;;31.50;37.60;;;;;;1805695;79;21065;-68
2022/07/01 11:43:40;;;;;;;2.95;2.75;;;31.60;37.10;;;;;;1805744;79;21109;-68
2022/07/01 11:46:10;;;;;;;5.78;3.02;;;31.60;36.70;;;;;;1803072;79;21089;-68
2022/07/01 11:48:45;;;;;;;5.60;2.92;;;31.60;37.00;;;;;;1800040;80;21046;-68
2022/07/01 11:51:16;;;;;;;4.08;2.60;;;31.50;36.50;;;;;;1800143;80;21177;-68
2022/07/01 11:53:48;;;;;;;10.40;3.85;;;31.50;36.70;;;;;;1799945;80;21050;-68
2022/07/01 11:56:39;;;;;;;8.10;3.12;;;31.40;37.30;;;;;;1800132;80;21045;-68
2022/07/01 11:59:08;;;;;;;7.28;3.17;;;31.50;38.50;;;;;;1874050;76;21033;-67
2022/07/01 12:01:39;;;;;;;7.15;2.90;;;31.60;37.30;;;;;;1873970;76;21037;-68
2022/07/01 12:04:10;;;;;;;6.95;3.67;;;31.70;37.20;;;;;;1873933;76;21010;-68
2022/07/01 12:06:42;;;;;;;7.20;3.27;;;31.70;36.90;;;;;;1873969;76;21021;-68
2022/07/01 12:09:22;;;;;;;7.50;2.50;;;31.70;37.70;;;;;;1874122;76;21507;-69
2022/07/01 12:11:57;;;;;;;5.55;2.83;;;31.70;37.30;;;;;;1870143;75;21131;-67
2022/07/01 12:14:32;;;;;;;7.35;3.37;;;31.70;37.00;;;;;;1892410;76;21782;-67
2022/07/01 12:17:05;;;;;;;4.90;2.35;;;31.80;37.10;;;;;;1892415;76;21046;-68
2022/07/01 12:19:42;;;;;;;5.33;2.67;;;31.80;37.50;;;;;;1892420;76;21046;-68
2022/07/01 12:22:15;;;;;;;7.45;2.75;;;31.80;37.20;;;;;;1892445;76;21132;-68
2022/07/01 12:24:44;;;;;;;6.60;3.55;;;31.90;37.30;;;;;;1892483;76;21003;-69
2022/07/01 12:27:14;;;;;;;7.85;3.10;;;31.90;37.60;;;;;;1892415;76;21116;-68
2022/07/01 12:29:52;;;;;;;4.40;2.67;;;32.00;38.00;;;;;;1892504;76;21139;-69
2022/07/01 12:32:29;;;;;;;8.50;3.22;;;32.10;37.50;;;;;;1891344;75;21573;-68
2022/07/01 12:35:00;;;;;;;7.08;2.87;;;32.10;38.00;;;;;;1892280;76;21030;-68
2022/07/01 12:37:34;;;;;;;7.05;2.95;;;32.10;37.30;;;;;;1892365;76;21027;-68
2022/07/01 12:40:04;;;;;;;;;;;32.10;37.40;;;;;;1895029;76;21589;-69
2022/07/01 12:42:41;;;;;;;10.82;3.37;;;32.10;37.20;;;;;;1892222;76;20134;-70
2022/07/01 12:45:13;;;;;;;8.38;2.72;;;32.00;37.90;;;;;;1892261;76;21034;-70
2022/07/01 12:50:39;;;;;;;5.85;2.77;;;32.00;37.60;;;;;;1809930;79;21484;-69
2022/07/01 12:53:19;;;;;;;8.28;2.45;;;32.00;37.00;;;;;;1809860;79;21052;-68
2022/07/01 12:55:51;;;;;;;3.72;2.40;;;32.00;37.60;;;;;;1812889;79;21115;-68
2022/07/01 12:58:22;;;;;;;5.20;3.15;;;32.00;38.10;;;;;;1849474;77;21018;-68
2022/07/01 13:00:57;;;;;;;6.37;3.50;;;32.00;38.30;;;;;;1849582;77;21132;-68
2022/07/01 13:03:28;;;;;;;6.30;2.95;;;32.00;39.00;;;;;;1849598;77;21042;-67
2022/07/01 13:05:58;;;;;;;7.95;3.17;;;32.00;38.50;;;;;;1849590;77;21042;-67
2022/07/01 13:08:27;;;;;;;8.50;3.35;;;32.00;39.30;;;;;;1849579;77;21037;-67
2022/07/01 13:10:57;;;;;;;6.10;3.30;;;32.00;40.00;;;;;;1849633;77;21107;-67
2022/07/01 13:13:26;;;;;;;9.95;4.20;;;32.00;39.70;;;;;;1849639;77;21055;-67
2022/07/01 13:15:55;;;;;;;8.85;4.80;;;32.00;40.30;;;;;;1849507;77;21107;-68
2022/07/01 13:18:25;;;;;;;4.55;3.80;;;31.80;40.80;;;;;;1849613;77;21021;-67
2022/07/01 13:20:54;;;;;;;15.72;5.03;;;31.80;41.10;;;;;;1849584;77;21167;-67
2022/07/01 13:23:23;;;;;;;7.92;4.00;;;31.70;41.80;;;;;;1849669;77;21092;-67
2022/07/01 13:25:53;;;;;;;6.47;3.92;;;31.60;42.10;;;;;;1849661;77;21065;-67
2022/07/01 13:28:22;;;;;;;7.67;4.15;;;31.60;42.80;;;;;;1849639;77;21041;-67
2022/07/01 13:30:56;;;;;;;9.33;3.92;;;31.60;42.90;;;;;;1851305;74;21925;-67